sensor_id;sensor_type;location;lat;lon;timestamp;temperature;humidity
9323;DHT22;4700;48.822;9.270;2022-11-15T00:01:46;10.40;1.00
9323;DHT22;4700;48.822;9.270;2022-11-15T00:04:32;10.40;1.00
9323;DHT22;4700;48.822;9.270;2022-11-15T00:07:18;10.40;1.00
9323;DHT22;4700;48.822;9.270;2022-11-15T00:10:04;10.50;1.00
9323;DHT22;4700;48.822;9.270;2022-11-15T00:12:53;10.50;1.00
9323;DHT22;4700;48.822;9.270;2022-11-15T00:15:41;10.50;1.00
9323;DHT22;4700;48.822;9.270;2022-11-15T00:18:27;10.60;1.00
9323;DHT22;4700;48.822;9.270;2022-11-15T00:21:13;10.60;1.00
9323;DHT22;4700;48.822;9.270;2022-11-15T00:23:59;10.60;1.00
9323;DHT22;4700;48.822;9.270;2022-11-15T00:26:45;10.60;1.00
9323;DHT22;4700;48.822;9.270;2022-11-15T00:29:30;10.60;1.00
9323;DHT22;4700;48.822;9.270;2022-11-15T00:32:16;10.60;1.00
9323;DHT22;4700;48.822;9.270;2022-11-15T00:35:02;10.60;1.00
9323;DHT22;4700;48.822;9.270;2022-11-15T00:37:48;10.60;1.00
9323;DHT22;4700;48.822;9.270;2022-11-15T00:40:33;10.50;1.00
9323;DHT22;4700;48.822;9.270;2022-11-15T00:43:19;10.50;1.00
9323;DHT22;4700;48.822;9.270;2022-11-15T00:46:05;10.50;1.00
9323;DHT22;4700;48.822;9.270;2022-11-15T00:48:54;10.40;1.00
9323;DHT22;4700;48.822;9.270;2022-11-15T00:51:39;10.40;1.00
9323;DHT22;4700;48.822;9.270;2022-11-15T00:54:25;10.40;1.00
9323;DHT22;4700;48.822;9.270;2022-11-15T00:57:11;10.30;1.00
9323;DHT22;4700;48.822;9.270;2022-11-15T00:59:57;10.20;1.00
9323;DHT22;4700;48.822;9.270;2022-11-15T01:02:43;10.20;1.00
9323;DHT22;4700;48.822;9.270;2022-11-15T01:05:30;10.20;1.00
9323;DHT22;4700;48.822;9.270;2022-11-15T01:08:17;10.10;1.00
9323;DHT22;4700;48.822;9.270;2022-11-15T01:11:05;10.10;1.00
9323;DHT22;4700;48.822;9.270;2022-11-15T01:13:51;10.00;1.00
9323;DHT22;4700;48.822;9.270;2022-11-15T01:16:37;9.90;1.00
9323;DHT22;4700;48.822;9.270;2022-11-15T01:19:25;9.80;1.00
9323;DHT22;4700;48.822;9.270;2022-11-15T01:22:12;9.70;1.00
9323;DHT22;4700;48.822;9.270;2022-11-15T01:24:58;9.70;1.00
9323;DHT22;4700;48.822;9.270;2022-11-15T01:27:44;9.60;1.00
9323;DHT22;4700;48.822;9.270;2022-11-15T01:30:30;9.50;1.00
9323;DHT22;4700;48.822;9.270;2022-11-15T01:33:16;9.30;1.00
9323;DHT22;4700;48.822;9.270;2022-11-15T01:36:03;9.20;1.00
9323;DHT22;4700;48.822;9.270;2022-11-15T01:38:54;9.10;1.00
9323;DHT22;4700;48.822;9.270;2022-11-15T01:41:42;8.90;1.00
9323;DHT22;4700;48.822;9.270;2022-11-15T01:44:39;8.80;1.00
9323;DHT22;4700;48.822;9.270;2022-11-15T01:52:35;8.40;1.00
9323;DHT22;4700;48.822;9.270;2022-11-15T02:03:09;8.00;1.00
9323;DHT22;4700;48.822;9.270;2022-11-15T02:21:33;7.70;1.00
9323;DHT22;4700;48.822;9.270;2022-11-15T02:29:48;7.90;1.00
9323;DHT22;4700;48.822;9.270;2022-11-15T02:40:29;8.30;1.00
9323;DHT22;4700;48.822;9.270;2022-11-15T02:43:26;8.40;1.00
9323;DHT22;4700;48.822;9.270;2022-11-15T02:46:34;8.50;1.00
9323;DHT22;4700;48.822;9.270;2022-11-15T02:49:41;8.60;1.00
9323;DHT22;4700;48.822;9.270;2022-11-15T02:52:28;8.70;1.00
9323;DHT22;4700;48.822;9.270;2022-11-15T02:55:30;8.70;1.00
9323;DHT22;4700;48.822;9.270;2022-11-15T02:58:35;8.70;1.00
9323;DHT22;4700;48.822;9.270;2022-11-15T03:01:35;8.60;1.00
9323;DHT22;4700;48.822;9.270;2022-11-15T03:04:29;8.60;1.00
9323;DHT22;4700;48.822;9.270;2022-11-15T03:07:25;8.60;1.00
9323;DHT22;4700;48.822;9.270;2022-11-15T03:10:18;8.60;1.00
9323;DHT22;4700;48.822;9.270;2022-11-15T03:13:12;8.60;1.00
9323;DHT22;4700;48.822;9.270;2022-11-15T03:16:06;8.70;1.00
9323;DHT22;4700;48.822;9.270;2022-11-15T03:18:57;8.80;1.00
9323;DHT22;4700;48.822;9.270;2022-11-15T03:21:45;8.80;1.00
9323;DHT22;4700;48.822;9.270;2022-11-15T03:24:34;8.80;1.00
9323;DHT22;4700;48.822;9.270;2022-11-15T03:27:25;8.70;1.00
9323;DHT22;4700;48.822;9.270;2022-11-15T03:30:13;8.70;1.00
9323;DHT22;4700;48.822;9.270;2022-11-15T03:33:00;8.60;1.00
9323;DHT22;4700;48.822;9.270;2022-11-15T03:35:48;8.60;1.00
9323;DHT22;4700;48.822;9.270;2022-11-15T03:38:35;8.50;1.00
9323;DHT22;4700;48.822;9.270;2022-11-15T03:41:24;8.50;1.00
9323;DHT22;4700;48.822;9.270;2022-11-15T03:44:17;8.40;1.00
9323;DHT22;4700;48.822;9.270;2022-11-15T03:49:45;8.30;1.00
9323;DHT22;4700;48.822;9.270;2022-11-15T03:57:28;8.20;1.00
9323;DHT22;4700;48.822;9.270;2022-11-15T04:23:27;8.10;1.00
9323;DHT22;4700;48.822;9.270;2022-11-15T05:38:19;7.40;1.00
9323;DHT22;4700;48.822;9.270;2022-11-15T07:21:00;8.00;1.00
9323;DHT22;4700;48.822;9.270;2022-11-15T07:26:21;8.10;1.00
9323;DHT22;4700;48.822;9.270;2022-11-15T07:29:10;8.20;1.00
9323;DHT22;4700;48.822;9.270;2022-11-15T07:31:56;8.40;1.00
9323;DHT22;4700;48.822;9.270;2022-11-15T07:34:42;8.50;1.00
9323;DHT22;4700;48.822;9.270;2022-11-15T07:37:31;8.70;1.00
9323;DHT22;4700;48.822;9.270;2022-11-15T07:40:17;8.90;1.00
9323;DHT22;4700;48.822;9.270;2022-11-15T07:43:05;9.20;1.00
9323;DHT22;4700;48.822;9.270;2022-11-15T07:45:51;9.60;1.00
9323;DHT22;4700;48.822;9.270;2022-11-15T07:48:38;9.80;1.00
9323;DHT22;4700;48.822;9.270;2022-11-15T07:51:24;10.10;1.00
9323;DHT22;4700;48.822;9.270;2022-11-15T07:54:12;10.30;1.00
9323;DHT22;4700;48.822;9.270;2022-11-15T07:56:57;10.60;1.00
9323;DHT22;4700;48.822;9.270;2022-11-15T07:59:43;10.80;1.00
9323;DHT22;4700;48.822;9.270;2022-11-15T08:02:29;11.30;1.00
9323;DHT22;4700;48.822;9.270;2022-11-15T08:05:15;11.60;1.00
9323;DHT22;4700;48.822;9.270;2022-11-15T08:08:01;12.00;1.00
9323;DHT22;4700;48.822;9.270;2022-11-15T08:10:48;12.40;1.00
9323;DHT22;4700;48.822;9.270;2022-11-15T08:13:34;12.80;1.00
9323;DHT22;4700;48.822;9.270;2022-11-15T08:16:20;13.20;1.00
9323;DHT22;4700;48.822;9.270;2022-11-15T08:19:05;13.40;1.00
9323;DHT22;4700;48.822;9.270;2022-11-15T08:21:54;13.40;1.00
9323;DHT22;4700;48.822;9.270;2022-11-15T08:24:40;13.70;1.00
9323;DHT22;4700;48.822;9.270;2022-11-15T08:29:56;14.40;1.00
9323;DHT22;4700;48.822;9.270;2022-11-15T08:32:42;14.90;1.00
9323;DHT22;4700;48.822;9.270;2022-11-15T08:35:28;15.10;1.00
9323;DHT22;4700;48.822;9.270;2022-11-15T08:38:14;14.90;1.00
9323;DHT22;4700;48.822;9.270;2022-11-15T08:41:04;14.60;1.00
9323;DHT22;4700;48.822;9.270;2022-11-15T08:43:52;14.40;1.00
9323;DHT22;4700;48.822;9.270;2022-11-15T08:46:39;14.40;1.00
9323;DHT22;4700;48.822;9.270;2022-11-15T08:49:26;14.90;1.00
9323;DHT22;4700;48.822;9.270;2022-11-15T08:52:13;15.60;1.00
9323;DHT22;4700;48.822;9.270;2022-11-15T08:55:00;16.10;1.00
9323;DHT22;4700;48.822;9.270;2022-11-15T08:57:46;16.50;1.00
9323;DHT22;4700;48.822;9.270;2022-11-15T09:00:33;16.70;1.00
9323;DHT22;4700;48.822;9.270;2022-11-15T09:03:20;17.80;1.00
9323;DHT22;4700;48.822;9.270;2022-11-15T09:06:06;18.70;1.00
9323;DHT22;4700;48.822;9.270;2022-11-15T09:08:54;19.20;1.00
9323;DHT22;4700;48.822;9.270;2022-11-15T09:11:40;20.40;1.00
9323;DHT22;4700;48.822;9.270;2022-11-15T09:14:26;21.90;1.00
9323;DHT22;4700;48.822;9.270;2022-11-15T09:17:12;22.30;1.00
9323;DHT22;4700;48.822;9.270;2022-11-15T09:20:00;22.00;1.00
9323;DHT22;4700;48.822;9.270;2022-11-15T09:22:47;21.20;1.00
9323;DHT22;4700;48.822;9.270;2022-11-15T09:25:33;20.50;1.00
9323;DHT22;4700;48.822;9.270;2022-11-15T09:28:19;19.60;1.00
9323;DHT22;4700;48.822;9.270;2022-11-15T09:31:06;18.90;1.00
9323;DHT22;4700;48.822;9.270;2022-11-15T09:33:54;18.30;1.00
9323;DHT22;4700;48.822;9.270;2022-11-15T09:36:41;17.80;1.00
9323;DHT22;4700;48.822;9.270;2022-11-15T09:39:32;17.60;1.00
9323;DHT22;4700;48.822;9.270;2022-11-15T09:42:38;17.40;1.00
9323;DHT22;4700;48.822;9.270;2022-11-15T09:45:32;17.40;1.00
9323;DHT22;4700;48.822;9.270;2022-11-15T09:51:44;17.40;1.00
9323;DHT22;4700;48.822;9.270;2022-11-15T09:54:34;17.10;1.00
9323;DHT22;4700;48.822;9.270;2022-11-15T09:57:31;16.90;1.00
9323;DHT22;4700;48.822;9.270;2022-11-15T10:00:20;16.60;1.00
9323;DHT22;4700;48.822;9.270;2022-11-15T10:03:13;16.20;1.00
9323;DHT22;4700;48.822;9.270;2022-11-15T10:06:01;15.80;1.00
9323;DHT22;4700;48.822;9.270;2022-11-15T10:08:55;15.60;1.00
9323;DHT22;4700;48.822;9.270;2022-11-15T10:11:43;15.60;1.00
9323;DHT22;4700;48.822;9.270;2022-11-15T10:14:31;15.90;1.00
9323;DHT22;4700;48.822;9.270;2022-11-15T10:17:41;16.20;1.00
9323;DHT22;4700;48.822;9.270;2022-11-15T10:20:32;16.50;1.00
9323;DHT22;4700;48.822;9.270;2022-11-15T10:23:22;16.70;1.00
9323;DHT22;4700;48.822;9.270;2022-11-15T10:26:24;17.00;1.00
9323;DHT22;4700;48.822;9.270;2022-11-15T10:29:18;17.00;1.00
9323;DHT22;4700;48.822;9.270;2022-11-15T10:32:04;17.10;1.00
9323;DHT22;4700;48.822;9.270;2022-11-15T10:34:51;17.10;1.00
9323;DHT22;4700;48.822;9.270;2022-11-15T10:37:36;17.20;1.00
9323;DHT22;4700;48.822;9.270;2022-11-15T10:40:24;17.20;1.00
9323;DHT22;4700;48.822;9.270;2022-11-15T10:43:16;17.30;1.00
9323;DHT22;4700;48.822;9.270;2022-11-15T10:46:19;17.30;1.00
9323;DHT22;4700;48.822;9.270;2022-11-15T10:49:13;17.40;1.00
9323;DHT22;4700;48.822;9.270;2022-11-15T10:52:04;17.40;1.00
9323;DHT22;4700;48.822;9.270;2022-11-15T10:55:03;17.30;1.00
9323;DHT22;4700;48.822;9.270;2022-11-15T10:57:53;17.10;1.00
9323;DHT22;4700;48.822;9.270;2022-11-15T11:00:41;17.10;1.00
9323;DHT22;4700;48.822;9.270;2022-11-15T11:03:29;17.10;1.00
9323;DHT22;4700;48.822;9.270;2022-11-15T11:06:18;17.10;1.00
9323;DHT22;4700;48.822;9.270;2022-11-15T11:09:08;17.20;1.00
9323;DHT22;4700;48.822;9.270;2022-11-15T11:12:10;17.20;1.00
9323;DHT22;4700;48.822;9.270;2022-11-15T11:14:58;17.20;1.00
9323;DHT22;4700;48.822;9.270;2022-11-15T11:17:55;17.00;1.00
9323;DHT22;4700;48.822;9.270;2022-11-15T11:20:46;16.90;1.00
9323;DHT22;4700;48.822;9.270;2022-11-15T11:23:54;16.70;1.00
9323;DHT22;4700;48.822;9.270;2022-11-15T11:26:54;16.60;1.00
9323;DHT22;4700;48.822;9.270;2022-11-15T11:29:52;16.40;1.00
9323;DHT22;4700;48.822;9.270;2022-11-15T11:33:14;16.40;1.00
9323;DHT22;4700;48.822;9.270;2022-11-15T11:36:13;16.40;1.00
9323;DHT22;4700;48.822;9.270;2022-11-15T11:39:18;16.40;1.00
9323;DHT22;4700;48.822;9.270;2022-11-15T11:42:13;16.40;1.00
9323;DHT22;4700;48.822;9.270;2022-11-15T11:45:11;16.50;1.00
9323;DHT22;4700;48.822;9.270;2022-11-15T11:48:07;16.80;1.00
9323;DHT22;4700;48.822;9.270;2022-11-15T11:51:07;16.90;1.00
9323;DHT22;4700;48.822;9.270;2022-11-15T11:53:57;17.00;1.00
9323;DHT22;4700;48.822;9.270;2022-11-15T11:56:46;17.00;1.00
9323;DHT22;4700;48.822;9.270;2022-11-15T11:59:37;16.90;1.00
9323;DHT22;4700;48.822;9.270;2022-11-15T12:02:34;16.90;1.00
9323;DHT22;4700;48.822;9.270;2022-11-15T12:05:28;16.60;1.00
9323;DHT22;4700;48.822;9.270;2022-11-15T12:08:25;16.70;1.00
9323;DHT22;4700;48.822;9.270;2022-11-15T12:11:19;16.90;1.00
9323;DHT22;4700;48.822;9.270;2022-11-15T12:14:27;17.00;1.00
9323;DHT22;4700;48.822;9.270;2022-11-15T12:17:17;17.10;1.00
9323;DHT22;4700;48.822;9.270;2022-11-15T12:20:15;17.10;1.00
9323;DHT22;4700;48.822;9.270;2022-11-15T12:23:11;17.10;1.00
9323;DHT22;4700;48.822;9.270;2022-11-15T12:26:02;17.30;1.00
9323;DHT22;4700;48.822;9.270;2022-11-15T12:31:24;17.20;1.00
9323;DHT22;4700;48.822;9.270;2022-11-15T12:40:37;16.90;1.00
9323;DHT22;4700;48.822;9.270;2022-11-15T12:43:43;16.90;1.00
9323;DHT22;4700;48.822;9.270;2022-11-15T12:47:02;16.80;1.00
9323;DHT22;4700;48.822;9.270;2022-11-15T12:49:51;16.60;1.00
9323;DHT22;4700;48.822;9.270;2022-11-15T12:56:23;16.50;1.00
9323;DHT22;4700;48.822;9.270;2022-11-15T13:02:34;16.60;1.00
9323;DHT22;4700;48.822;9.270;2022-11-15T13:05:55;16.50;1.00
9323;DHT22;4700;48.822;9.270;2022-11-15T13:08:49;16.50;1.00
9323;DHT22;4700;48.822;9.270;2022-11-15T13:11:50;16.50;1.00
9323;DHT22;4700;48.822;9.270;2022-11-15T13:14:49;16.40;1.00
9323;DHT22;4700;48.822;9.270;2022-11-15T13:17:36;16.30;1.00
9323;DHT22;4700;48.822;9.270;2022-11-15T13:20:26;16.20;1.00
9323;DHT22;4700;48.822;9.270;2022-11-15T13:23:14;16.10;1.00
9323;DHT22;4700;48.822;9.270;2022-11-15T13:26:09;16.10;1.00
9323;DHT22;4700;48.822;9.270;2022-11-15T13:28:56;15.90;1.00
9323;DHT22;4700;48.822;9.270;2022-11-15T13:31:36;15.80;1.00
9323;DHT22;4700;48.822;9.270;2022-11-15T13:34:28;15.70;1.00
9323;DHT22;4700;48.822;9.270;2022-11-15T13:37:28;15.80;1.00
9323;DHT22;4700;48.822;9.270;2022-11-15T13:40:26;15.80;1.00
9323;DHT22;4700;48.822;9.270;2022-11-15T13:43:26;15.90;1.00
9323;DHT22;4700;48.822;9.270;2022-11-15T13:46:15;15.70;1.00
9323;DHT22;4700;48.822;9.270;2022-11-15T13:49:04;15.70;1.00
9323;DHT22;4700;48.822;9.270;2022-11-15T13:51:54;15.60;1.00
9323;DHT22;4700;48.822;9.270;2022-11-15T13:54:43;15.70;1.00
9323;DHT22;4700;48.822;9.270;2022-11-15T13:57:38;15.70;1.00
9323;DHT22;4700;48.822;9.270;2022-11-15T14:00:37;15.80;1.00
9323;DHT22;4700;48.822;9.270;2022-11-15T14:03:26;15.70;1.00
9323;DHT22;4700;48.822;9.270;2022-11-15T14:06:16;15.60;1.00
9323;DHT22;4700;48.822;9.270;2022-11-15T14:09:32;15.50;1.00
9323;DHT22;4700;48.822;9.270;2022-11-15T14:12:29;15.50;1.00
9323;DHT22;4700;48.822;9.270;2022-11-15T14:15:26;15.30;1.00
9323;DHT22;4700;48.822;9.270;2022-11-15T14:18:40;15.10;1.00
9323;DHT22;4700;48.822;9.270;2022-11-15T14:21:33;14.90;1.00
9323;DHT22;4700;48.822;9.270;2022-11-15T14:24:24;14.80;1.00
9323;DHT22;4700;48.822;9.270;2022-11-15T14:27:19;14.50;1.00
9323;DHT22;4700;48.822;9.270;2022-11-15T14:30:13;14.40;1.00
9323;DHT22;4700;48.822;9.270;2022-11-15T14:33:00;14.30;1.00
9323;DHT22;4700;48.822;9.270;2022-11-15T14:35:46;14.20;1.00
9323;DHT22;4700;48.822;9.270;2022-11-15T14:38:33;14.10;1.00
9323;DHT22;4700;48.822;9.270;2022-11-15T14:41:21;14.10;1.00
9323;DHT22;4700;48.822;9.270;2022-11-15T14:44:10;14.10;1.00
9323;DHT22;4700;48.822;9.270;2022-11-15T14:46:56;14.10;1.00
9323;DHT22;4700;48.822;9.270;2022-11-15T14:49:42;14.00;1.00
9323;DHT22;4700;48.822;9.270;2022-11-15T14:52:29;13.90;1.00
9323;DHT22;4700;48.822;9.270;2022-11-15T14:55:22;13.70;1.00
9323;DHT22;4700;48.822;9.270;2022-11-15T14:58:09;13.60;1.00
9323;DHT22;4700;48.822;9.270;2022-11-15T15:00:55;13.50;1.00
9323;DHT22;4700;48.822;9.270;2022-11-15T15:03:41;13.50;1.00
9323;DHT22;4700;48.822;9.270;2022-11-15T15:06:28;13.40;1.00
9323;DHT22;4700;48.822;9.270;2022-11-15T15:09:17;13.40;1.00
9323;DHT22;4700;48.822;9.270;2022-11-15T15:12:08;13.40;1.00
9323;DHT22;4700;48.822;9.270;2022-11-15T15:14:58;13.40;1.00
9323;DHT22;4700;48.822;9.270;2022-11-15T15:17:44;13.30;1.00
9323;DHT22;4700;48.822;9.270;2022-11-15T15:20:33;13.30;1.00
9323;DHT22;4700;48.822;9.270;2022-11-15T15:23:22;13.30;1.00
9323;DHT22;4700;48.822;9.270;2022-11-15T15:26:09;13.20;1.00
9323;DHT22;4700;48.822;9.270;2022-11-15T15:28:57;13.20;1.00
9323;DHT22;4700;48.822;9.270;2022-11-15T15:31:42;13.10;1.00
9323;DHT22;4700;48.822;9.270;2022-11-15T15:34:37;13.10;1.00
9323;DHT22;4700;48.822;9.270;2022-11-15T15:37:25;13.10;1.00
9323;DHT22;4700;48.822;9.270;2022-11-15T15:40:14;13.00;1.00
9323;DHT22;4700;48.822;9.270;2022-11-15T15:43:01;13.00;1.00
9323;DHT22;4700;48.822;9.270;2022-11-15T15:45:49;12.90;1.00
9323;DHT22;4700;48.822;9.270;2022-11-15T15:48:34;12.90;1.00
9323;DHT22;4700;48.822;9.270;2022-11-15T15:51:22;12.80;1.00
9323;DHT22;4700;48.822;9.270;2022-11-15T15:54:08;12.80;1.00
9323;DHT22;4700;48.822;9.270;2022-11-15T15:56:55;12.80;1.00
9323;DHT22;4700;48.822;9.270;2022-11-15T15:59:41;12.70;1.00
9323;DHT22;4700;48.822;9.270;2022-11-15T16:02:30;12.70;1.00
9323;DHT22;4700;48.822;9.270;2022-11-15T16:05:16;12.70;1.00
9323;DHT22;4700;48.822;9.270;2022-11-15T16:08:03;12.70;1.00
9323;DHT22;4700;48.822;9.270;2022-11-15T16:10:51;12.70;1.00
9323;DHT22;4700;48.822;9.270;2022-11-15T16:13:37;12.60;1.00
9323;DHT22;4700;48.822;9.270;2022-11-15T16:16:23;12.60;1.00
9323;DHT22;4700;48.822;9.270;2022-11-15T16:19:10;12.60;1.00
9323;DHT22;4700;48.822;9.270;2022-11-15T16:21:57;12.70;1.00
9323;DHT22;4700;48.822;9.270;2022-11-15T16:24:43;12.70;1.00
9323;DHT22;4700;48.822;9.270;2022-11-15T16:27:29;12.70;1.00
9323;DHT22;4700;48.822;9.270;2022-11-15T16:30:17;12.60;1.00
9323;DHT22;4700;48.822;9.270;2022-11-15T16:33:02;12.60;1.00
9323;DHT22;4700;48.822;9.270;2022-11-15T16:35:50;12.50;1.00
9323;DHT22;4700;48.822;9.270;2022-11-15T16:38:35;12.50;1.00
9323;DHT22;4700;48.822;9.270;2022-11-15T16:41:23;12.50;1.00
9323;DHT22;4700;48.822;9.270;2022-11-15T16:44:08;12.40;1.00
9323;DHT22;4700;48.822;9.270;2022-11-15T16:46:54;12.50;1.00
9323;DHT22;4700;48.822;9.270;2022-11-15T16:49:45;12.50;1.00
9323;DHT22;4700;48.822;9.270;2022-11-15T16:52:32;12.50;1.00
9323;DHT22;4700;48.822;9.270;2022-11-15T16:55:18;12.50;1.00
9323;DHT22;4700;48.822;9.270;2022-11-15T16:58:04;12.50;1.00
9323;DHT22;4700;48.822;9.270;2022-11-15T17:00:51;12.50;1.00
9323;DHT22;4700;48.822;9.270;2022-11-15T17:03:37;12.50;1.00
9323;DHT22;4700;48.822;9.270;2022-11-15T17:06:24;12.50;1.00
9323;DHT22;4700;48.822;9.270;2022-11-15T17:09:12;12.60;1.00
9323;DHT22;4700;48.822;9.270;2022-11-15T17:11:59;12.60;1.00
9323;DHT22;4700;48.822;9.270;2022-11-15T17:14:45;12.70;1.00
9323;DHT22;4700;48.822;9.270;2022-11-15T17:17:31;12.80;1.00
9323;DHT22;4700;48.822;9.270;2022-11-15T17:20:19;12.80;1.00
9323;DHT22;4700;48.822;9.270;2022-11-15T17:23:05;12.80;1.00
9323;DHT22;4700;48.822;9.270;2022-11-15T17:25:59;12.80;1.00
9323;DHT22;4700;48.822;9.270;2022-11-15T17:28:47;12.80;1.00
9323;DHT22;4700;48.822;9.270;2022-11-15T17:31:33;12.80;1.00
9323;DHT22;4700;48.822;9.270;2022-11-15T17:34:19;12.80;1.00
9323;DHT22;4700;48.822;9.270;2022-11-15T17:37:07;12.80;1.00
9323;DHT22;4700;48.822;9.270;2022-11-15T17:39:52;12.70;1.00
9323;DHT22;4700;48.822;9.270;2022-11-15T17:42:41;12.70;1.00
9323;DHT22;4700;48.822;9.270;2022-11-15T17:45:27;12.70;1.00
9323;DHT22;4700;48.822;9.270;2022-11-15T17:48:12;12.70;1.00
9323;DHT22;4700;48.822;9.270;2022-11-15T17:50:59;12.70;1.00
9323;DHT22;4700;48.822;9.270;2022-11-15T17:53:46;12.60;1.00
9323;DHT22;4700;48.822;9.270;2022-11-15T17:56:38;12.60;1.00
9323;DHT22;4700;48.822;9.270;2022-11-15T17:59:25;12.70;1.00
9323;DHT22;4700;48.822;9.270;2022-11-15T18:02:11;12.70;1.00
9323;DHT22;4700;48.822;9.270;2022-11-15T18:04:57;12.70;1.00
9323;DHT22;4700;48.822;9.270;2022-11-15T18:07:43;12.70;1.00
9323;DHT22;4700;48.822;9.270;2022-11-15T18:10:29;12.70;1.00
9323;DHT22;4700;48.822;9.270;2022-11-15T18:13:14;12.70;1.00
9323;DHT22;4700;48.822;9.270;2022-11-15T18:16:03;12.70;1.00
9323;DHT22;4700;48.822;9.270;2022-11-15T18:18:49;12.60;1.00
9323;DHT22;4700;48.822;9.270;2022-11-15T18:21:35;12.60;1.00
9323;DHT22;4700;48.822;9.270;2022-11-15T18:24:39;12.60;1.00
9323;DHT22;4700;48.822;9.270;2022-11-15T18:27:27;12.60;1.00
9323;DHT22;4700;48.822;9.270;2022-11-15T18:30:13;12.50;1.00
9323;DHT22;4700;48.822;9.270;2022-11-15T18:32:51;12.50;1.00
9323;DHT22;4700;48.822;9.270;2022-11-15T18:35:37;12.50;1.00
9323;DHT22;4700;48.822;9.270;2022-11-15T18:38:23;12.50;1.00
9323;DHT22;4700;48.822;9.270;2022-11-15T18:41:15;12.50;1.00
9323;DHT22;4700;48.822;9.270;2022-11-15T18:44:03;12.50;1.00
9323;DHT22;4700;48.822;9.270;2022-11-15T18:46:50;12.50;1.00
9323;DHT22;4700;48.822;9.270;2022-11-15T18:49:37;12.50;1.00
9323;DHT22;4700;48.822;9.270;2022-11-15T18:52:23;12.50;1.00
9323;DHT22;4700;48.822;9.270;2022-11-15T18:55:11;12.60;1.00
9323;DHT22;4700;48.822;9.270;2022-11-15T18:57:57;12.60;1.00
9323;DHT22;4700;48.822;9.270;2022-11-15T19:00:43;12.60;1.00
9323;DHT22;4700;48.822;9.270;2022-11-15T19:03:33;12.60;1.00
9323;DHT22;4700;48.822;9.270;2022-11-15T19:06:22;12.60;1.00
9323;DHT22;4700;48.822;9.270;2022-11-15T19:09:09;12.60;1.00
9323;DHT22;4700;48.822;9.270;2022-11-15T19:11:56;12.50;1.00
9323;DHT22;4700;48.822;9.270;2022-11-15T19:14:43;12.40;1.00
9323;DHT22;4700;48.822;9.270;2022-11-15T19:17:29;12.40;1.00
9323;DHT22;4700;48.822;9.270;2022-11-15T19:20:15;12.40;1.00
9323;DHT22;4700;48.822;9.270;2022-11-15T19:23:05;12.40;1.00
9323;DHT22;4700;48.822;9.270;2022-11-15T19:25:54;12.30;1.00
9323;DHT22;4700;48.822;9.270;2022-11-15T19:28:41;12.20;1.00
9323;DHT22;4700;48.822;9.270;2022-11-15T19:31:28;12.20;1.00
9323;DHT22;4700;48.822;9.270;2022-11-15T19:34:14;12.10;1.00
9323;DHT22;4700;48.822;9.270;2022-11-15T19:37:01;12.00;1.00
9323;DHT22;4700;48.822;9.270;2022-11-15T19:39:48;11.90;1.00
9323;DHT22;4700;48.822;9.270;2022-11-15T19:42:34;11.90;1.00
9323;DHT22;4700;48.822;9.270;2022-11-15T19:45:20;11.80;1.00
9323;DHT22;4700;48.822;9.270;2022-11-15T19:48:06;11.70;1.00
9323;DHT22;4700;48.822;9.270;2022-11-15T19:50:52;11.70;1.00
9323;DHT22;4700;48.822;9.270;2022-11-15T19:53:38;11.70;1.00
9323;DHT22;4700;48.822;9.270;2022-11-15T19:56:26;11.60;1.00
9323;DHT22;4700;48.822;9.270;2022-11-15T19:59:12;11.60;1.00
9323;DHT22;4700;48.822;9.270;2022-11-15T20:01:58;11.70;1.00
9323;DHT22;4700;48.822;9.270;2022-11-15T20:04:44;11.60;1.00
9323;DHT22;4700;48.822;9.270;2022-11-15T20:07:29;11.60;1.00
9323;DHT22;4700;48.822;9.270;2022-11-15T20:10:16;11.60;1.00
9323;DHT22;4700;48.822;9.270;2022-11-15T20:13:03;11.50;1.00
9323;DHT22;4700;48.822;9.270;2022-11-15T20:15:49;11.50;1.00
9323;DHT22;4700;48.822;9.270;2022-11-15T20:18:35;11.40;1.00
9323;DHT22;4700;48.822;9.270;2022-11-15T20:21:20;11.40;1.00
9323;DHT22;4700;48.822;9.270;2022-11-15T20:24:07;11.30;1.00
9323;DHT22;4700;48.822;9.270;2022-11-15T20:26:52;11.30;1.00
9323;DHT22;4700;48.822;9.270;2022-11-15T20:29:40;11.20;1.00
9323;DHT22;4700;48.822;9.270;2022-11-15T20:32:25;11.20;1.00
9323;DHT22;4700;48.822;9.270;2022-11-15T20:35:11;11.20;1.00
9323;DHT22;4700;48.822;9.270;2022-11-15T20:37:57;11.20;1.00
9323;DHT22;4700;48.822;9.270;2022-11-15T20:40:44;11.20;1.00
9323;DHT22;4700;48.822;9.270;2022-11-15T20:43:30;11.10;1.00
9323;DHT22;4700;48.822;9.270;2022-11-15T20:46:17;11.10;1.00
9323;DHT22;4700;48.822;9.270;2022-11-15T20:49:04;11.10;1.00
9323;DHT22;4700;48.822;9.270;2022-11-15T20:51:51;11.10;1.00
9323;DHT22;4700;48.822;9.270;2022-11-15T20:54:37;11.10;1.00
9323;DHT22;4700;48.822;9.270;2022-11-15T20:57:23;11.10;1.00
9323;DHT22;4700;48.822;9.270;2022-11-15T21:00:09;11.20;1.00
9323;DHT22;4700;48.822;9.270;2022-11-15T21:03:00;11.20;1.00
9323;DHT22;4700;48.822;9.270;2022-11-15T21:05:52;11.40;1.00
9323;DHT22;4700;48.822;9.270;2022-11-15T21:08:38;11.20;1.00
9323;DHT22;4700;48.822;9.270;2022-11-15T21:11:42;11.20;1.00
9323;DHT22;4700;48.822;9.270;2022-11-15T21:14:46;11.20;1.00
9323;DHT22;4700;48.822;9.270;2022-11-15T21:17:33;11.20;1.00
9323;DHT22;4700;48.822;9.270;2022-11-15T21:20:20;11.10;1.00
9323;DHT22;4700;48.822;9.270;2022-11-15T21:23:06;11.10;1.00
9323;DHT22;4700;48.822;9.270;2022-11-15T21:25:52;11.10;1.00
9323;DHT22;4700;48.822;9.270;2022-11-15T21:28:38;11.10;1.00
9323;DHT22;4700;48.822;9.270;2022-11-15T21:31:24;11.10;1.00
9323;DHT22;4700;48.822;9.270;2022-11-15T21:34:10;11.10;1.00
9323;DHT22;4700;48.822;9.270;2022-11-15T21:36:57;11.20;1.00
9323;DHT22;4700;48.822;9.270;2022-11-15T21:39:43;11.20;1.00
9323;DHT22;4700;48.822;9.270;2022-11-15T21:42:32;11.10;1.00
9323;DHT22;4700;48.822;9.270;2022-11-15T21:45:18;11.10;1.00
9323;DHT22;4700;48.822;9.270;2022-11-15T21:48:04;11.10;1.00
9323;DHT22;4700;48.822;9.270;2022-11-15T21:50:57;11.10;1.00
9323;DHT22;4700;48.822;9.270;2022-11-15T21:53:45;11.00;1.00
9323;DHT22;4700;48.822;9.270;2022-11-15T21:56:33;11.00;1.00
9323;DHT22;4700;48.822;9.270;2022-11-15T21:59:19;11.00;1.00
9323;DHT22;4700;48.822;9.270;2022-11-15T22:02:07;11.00;1.00
9323;DHT22;4700;48.822;9.270;2022-11-15T22:04:58;11.10;1.00
9323;DHT22;4700;48.822;9.270;2022-11-15T22:07:44;11.10;1.00
9323;DHT22;4700;48.822;9.270;2022-11-15T22:10:31;11.20;1.00
9323;DHT22;4700;48.822;9.270;2022-11-15T22:13:17;11.20;1.00
9323;DHT22;4700;48.822;9.270;2022-11-15T22:16:04;11.20;1.00
9323;DHT22;4700;48.822;9.270;2022-11-15T22:18:51;11.20;1.00
9323;DHT22;4700;48.822;9.270;2022-11-15T22:21:37;11.20;1.00
9323;DHT22;4700;48.822;9.270;2022-11-15T22:24:24;11.30;1.00
9323;DHT22;4700;48.822;9.270;2022-11-15T22:27:11;11.20;1.00
9323;DHT22;4700;48.822;9.270;2022-11-15T22:29:58;11.20;1.00
9323;DHT22;4700;48.822;9.270;2022-11-15T22:32:44;11.20;1.00
9323;DHT22;4700;48.822;9.270;2022-11-15T22:35:30;11.30;1.00
9323;DHT22;4700;48.822;9.270;2022-11-15T22:38:16;11.30;1.00
9323;DHT22;4700;48.822;9.270;2022-11-15T22:41:05;11.30;1.00
9323;DHT22;4700;48.822;9.270;2022-11-15T22:43:53;11.30;1.00
9323;DHT22;4700;48.822;9.270;2022-11-15T22:46:39;11.50;1.00
9323;DHT22;4700;48.822;9.270;2022-11-15T22:49:25;11.20;1.00
9323;DHT22;4700;48.822;9.270;2022-11-15T22:52:11;11.20;1.00
9323;DHT22;4700;48.822;9.270;2022-11-15T22:54:57;11.10;1.00
9323;DHT22;4700;48.822;9.270;2022-11-15T22:57:43;11.10;1.00
9323;DHT22;4700;48.822;9.270;2022-11-15T23:00:31;11.00;1.00
9323;DHT22;4700;48.822;9.270;2022-11-15T23:03:18;11.10;1.00
9323;DHT22;4700;48.822;9.270;2022-11-15T23:06:05;11.10;1.00
9323;DHT22;4700;48.822;9.270;2022-11-15T23:08:52;11.10;1.00
9323;DHT22;4700;48.822;9.270;2022-11-15T23:14:10;11.00;1.00
9323;DHT22;4700;48.822;9.270;2022-11-15T23:16:58;11.00;1.00